createdAt,value
2018-08-14T00:02:27.396Z,46.45
2018-08-14T00:04:55.502Z,47.80
2018-08-14T00:07:23.540Z,46.28
2018-08-14T00:09:51.625Z,45.03
2018-08-14T00:12:19.696Z,45.43
2018-08-14T00:14:47.767Z,44.48
2018-08-14T00:17:15.816Z,43.55
2018-08-14T00:19:43.947Z,43.20
2018-08-14T00:22:11.990Z,42.88
2018-08-14T00:24:40.041Z,42.35
2018-08-14T00:27:08.144Z,43.38
2018-08-14T00:29:36.207Z,42.40
2018-08-14T00:32:04.327Z,42.43
2018-08-14T00:34:32.368Z,42.83
2018-08-14T00:37:00.409Z,43.20
2018-08-14T00:39:28.499Z,42.75
2018-08-14T00:41:56.542Z,45.08
2018-08-14T00:44:24.581Z,42.30
2018-08-14T00:46:52.680Z,42.08
2018-08-14T00:49:20.707Z,43.80
2018-08-14T00:51:48.785Z,43.25
2018-08-14T00:54:16.860Z,42.53
2018-08-14T00:56:44.887Z,42.62
2018-08-14T00:59:12.911Z,42.60
2018-08-14T01:01:40.941Z,41.18
2018-08-14T01:04:08.969Z,40.70
2018-08-14T01:06:36.999Z,41.05
2018-08-14T01:09:07.396Z,39.78
2018-08-14T01:11:35.416Z,39.00
2018-08-14T01:14:03.585Z,38.50
2018-08-14T01:16:31.616Z,38.13
2018-08-14T01:18:59.644Z,38.45
2018-08-14T01:21:27.656Z,39.07
2018-08-14T01:23:55.687Z,38.35
2018-08-14T01:26:23.700Z,36.20
2018-08-14T01:28:51.736Z,36.28
2018-08-14T01:31:19.813Z,36.45
2018-08-14T01:33:47.841Z,36.83
2018-08-14T01:36:15.856Z,35.90
2018-08-14T01:38:43.884Z,36.65
2018-08-14T01:41:11.907Z,37.85
2018-08-14T01:43:39.949Z,35.10
2018-08-14T01:46:07.970Z,36.73
2018-08-14T01:48:35.990Z,36.10
2018-08-14T01:51:04.032Z,37.30
2018-08-14T01:53:32.070Z,36.58
2018-08-14T01:56:00.109Z,35.83
2018-08-14T01:58:28.128Z,36.40
2018-08-14T02:00:56.224Z,35.45
2018-08-14T02:03:24.248Z,36.53
2018-08-14T02:05:52.285Z,34.73
2018-08-14T02:08:20.304Z,35.75
2018-08-14T02:10:48.333Z,35.98
2018-08-14T02:13:16.399Z,35.88
2018-08-14T02:15:44.429Z,35.40
2018-08-14T02:18:12.475Z,37.17
2018-08-14T02:20:40.484Z,36.30
2018-08-14T02:23:08.532Z,36.55
2018-08-14T02:25:36.575Z,37.58
2018-08-14T02:28:04.591Z,37.90
2018-08-14T02:30:32.627Z,37.37
2018-08-14T02:33:00.685Z,36.88
2018-08-14T02:35:28.706Z,38.10
2018-08-14T02:37:56.757Z,38.05
2018-08-14T02:40:24.804Z,40.17
2018-08-14T02:42:52.931Z,39.20
2018-08-14T02:45:21.044Z,39.05
2018-08-14T02:47:49.070Z,38.58
2018-08-14T02:50:17.192Z,39.40
2018-08-14T02:52:45.281Z,39.27
2018-08-14T02:55:20.558Z,41.20
2018-08-14T02:57:48.732Z,40.12
2018-08-14T03:00:27.140Z,42.50
2018-08-14T03:02:55.590Z,40.73
2018-08-14T03:05:23.636Z,40.15
2018-08-14T03:07:51.851Z,41.13
2018-08-14T03:10:19.960Z,41.00
2018-08-14T03:12:48.016Z,40.78
2018-08-14T03:15:17.755Z,41.08
2018-08-14T03:17:48.996Z,40.40
2018-08-14T03:20:17.055Z,41.30
2018-08-14T03:22:45.084Z,41.50
2018-08-14T03:25:13.145Z,41.23
2018-08-14T03:27:41.190Z,41.73
2018-08-14T03:30:10.445Z,40.40
2018-08-14T03:32:38.476Z,41.35
2018-08-14T03:35:08.352Z,41.30
2018-08-14T03:37:36.415Z,40.80
2018-08-14T03:40:08.707Z,40.33
2018-08-14T03:42:36.739Z,40.00
2018-08-14T03:45:05.588Z,40.33
2018-08-14T03:47:34.592Z,42.38
2018-08-14T03:50:02.628Z,40.65
2018-08-14T03:52:30.696Z,38.55
2018-08-14T03:54:58.789Z,37.60
2018-08-14T03:57:26.803Z,39.03
2018-08-14T03:59:54.857Z,37.65
2018-08-14T04:02:22.872Z,38.92
2018-08-14T04:04:50.919Z,40.03
2018-08-14T04:07:18.984Z,37.80
2018-08-14T04:09:47.056Z,38.23
2018-08-14T04:12:15.128Z,35.43
2018-08-14T04:14:43.179Z,36.50
2018-08-14T04:17:11.234Z,35.45
2018-08-14T04:19:39.323Z,38.13
2018-08-14T04:22:07.359Z,38.90
2018-08-14T04:24:35.394Z,37.48
2018-08-14T04:27:03.450Z,38.50
2018-08-14T04:29:31.501Z,39.55
2018-08-14T04:31:59.539Z,39.42
2018-08-14T04:34:27.611Z,38.70
2018-08-14T04:36:55.642Z,36.93
2018-08-14T04:39:23.696Z,38.40
2018-08-14T04:41:51.762Z,39.90
2018-08-14T04:44:19.779Z,38.55
2018-08-14T04:46:47.849Z,37.70
2018-08-14T04:49:15.908Z,37.00
2018-08-14T04:51:43.967Z,38.60
2018-08-14T04:54:12.013Z,38.17
2018-08-14T04:56:40.041Z,37.55
2018-08-14T04:59:08.131Z,36.80
2018-08-14T05:01:36.184Z,34.80
2018-08-14T05:04:04.542Z,35.05
2018-08-14T05:06:32.603Z,34.58
2018-08-14T05:09:00.777Z,35.45
2018-08-14T05:11:28.797Z,35.52
2018-08-14T05:13:57.617Z,35.70
2018-08-14T05:16:25.999Z,33.70
2018-08-14T05:18:54.287Z,34.23
2018-08-14T05:21:22.440Z,34.63
2018-08-14T05:23:51.011Z,35.67
2018-08-14T05:26:20.569Z,32.15
2018-08-14T05:28:48.661Z,30.75
2018-08-14T05:31:16.747Z,31.85
2018-08-14T05:33:44.865Z,29.67
2018-08-14T05:36:12.827Z,30.55
2018-08-14T05:38:40.859Z,30.27
2018-08-14T05:41:08.928Z,29.90
2018-08-14T05:43:37.046Z,28.90
2018-08-14T05:46:05.077Z,26.77
2018-08-14T05:48:33.116Z,28.50
2018-08-14T05:51:01.164Z,30.35
2018-08-14T05:53:29.230Z,29.57
2018-08-14T05:55:57.251Z,30.43
2018-08-14T05:58:25.367Z,31.75
2018-08-14T06:00:53.416Z,32.10
2018-08-14T06:03:21.504Z,32.10
2018-08-14T06:05:49.528Z,32.60
2018-08-14T06:08:17.579Z,31.70
2018-08-14T06:10:45.626Z,31.40
2018-08-14T06:13:13.671Z,31.68
2018-08-14T06:15:41.725Z,30.85
2018-08-14T06:18:09.796Z,31.97
2018-08-14T06:20:37.871Z,31.70
2018-08-14T06:23:06.660Z,32.70
2018-08-14T06:25:34.723Z,32.50
2018-08-14T06:28:02.792Z,32.80
2018-08-14T06:30:30.852Z,32.95
2018-08-14T06:32:58.900Z,35.20
2018-08-14T06:35:27.027Z,31.60
2018-08-14T06:37:55.064Z,31.93
2018-08-14T06:40:23.127Z,30.45
2018-08-14T06:42:51.209Z,31.20
2018-08-14T06:45:19.516Z,30.23
2018-08-14T06:47:47.750Z,28.70
2018-08-14T06:50:17.534Z,29.72
2018-08-14T06:52:45.623Z,28.30
2018-08-14T06:55:13.849Z,27.43
2018-08-14T06:57:43.039Z,29.20
2018-08-14T07:00:17.856Z,27.10
2018-08-14T07:02:46.460Z,26.07
2018-08-14T07:05:14.524Z,25.85
2018-08-14T07:07:42.571Z,25.43
2018-08-14T07:10:11.162Z,25.95
2018-08-14T07:12:40.021Z,25.48
2018-08-14T07:15:15.187Z,24.73
2018-08-14T07:17:43.543Z,25.45
2018-08-14T07:20:12.968Z,25.30
2018-08-14T07:22:42.208Z,24.50
2018-08-14T07:25:10.667Z,23.57
2018-08-14T07:27:38.747Z,25.10
2018-08-14T07:30:19.180Z,22.45
2018-08-14T07:32:47.757Z,27.45
2018-08-14T07:35:15.796Z,24.77
2018-08-14T07:37:44.087Z,24.95
2018-08-14T07:40:12.272Z,23.65
2018-08-14T07:42:40.319Z,23.50
2018-08-14T07:45:10.251Z,23.20
2018-08-14T07:47:38.293Z,23.50
2018-08-14T07:50:07.200Z,23.75
2018-08-14T07:52:35.229Z,22.93
2018-08-14T07:55:03.519Z,22.75
2018-08-14T07:57:32.468Z,19.00
2018-08-14T08:00:00.527Z,18.80
2018-08-14T08:02:28.777Z,16.40
2018-08-14T08:04:56.808Z,17.00
2018-08-14T08:07:24.864Z,17.80
2018-08-14T08:09:52.932Z,18.20
2018-08-14T08:12:21.000Z,17.45
2018-08-14T08:14:49.045Z,18.80
2018-08-14T08:17:17.085Z,17.83
2018-08-14T08:19:45.130Z,17.43
2018-08-14T08:22:13.196Z,15.50
2018-08-14T08:24:41.237Z,15.88
2018-08-14T08:27:09.322Z,17.90
2018-08-14T08:29:37.398Z,16.15
2018-08-14T08:32:05.504Z,15.38
2018-08-14T08:34:33.560Z,14.68
2018-08-14T08:37:01.592Z,15.90
2018-08-14T08:39:29.655Z,15.20
2018-08-14T08:41:57.705Z,15.72
2018-08-14T08:44:25.746Z,14.90
2018-08-14T08:46:53.799Z,14.60
2018-08-14T08:49:21.887Z,14.25
2018-08-14T08:51:50.903Z,14.18
2018-08-14T08:54:18.935Z,11.50
2018-08-14T08:56:46.995Z,11.80
2018-08-14T08:59:15.031Z,11.65
2018-08-14T09:01:43.187Z,10.70
2018-08-14T09:04:11.212Z,9.50
2018-08-14T09:06:39.229Z,9.70
2018-08-14T09:09:10.054Z,9.05
2018-08-14T09:11:38.073Z,8.53
2018-08-14T09:14:06.444Z,8.03
2018-08-14T09:16:34.540Z,7.90
2018-08-14T09:19:02.574Z,7.90
2018-08-14T09:21:30.597Z,7.60
2018-08-14T09:23:58.721Z,7.90
2018-08-14T09:26:27.290Z,7.33
2018-08-14T09:28:55.376Z,7.62
2018-08-14T09:31:23.447Z,8.30
2018-08-14T09:33:51.500Z,8.37
2018-08-14T09:36:19.642Z,8.00
2018-08-14T09:38:47.680Z,8.05
2018-08-14T09:41:15.719Z,7.70
2018-08-14T09:43:43.800Z,7.60
2018-08-14T09:46:11.887Z,6.80
2018-08-14T09:48:41.220Z,7.47
2018-08-14T09:51:09.307Z,8.53
2018-08-14T09:53:37.393Z,8.10
2018-08-14T09:56:05.439Z,6.50
2018-08-14T09:58:33.468Z,6.50
2018-08-14T10:01:02.540Z,6.37
2018-08-14T10:03:33.174Z,6.40
2018-08-14T10:06:06.667Z,5.62
2018-08-14T10:08:34.720Z,6.10
2018-08-14T10:11:02.768Z,6.60
2018-08-14T10:13:30.839Z,7.20
2018-08-14T10:15:58.916Z,6.90
2018-08-14T10:18:27.563Z,6.60
2018-08-14T10:20:55.688Z,6.60
2018-08-14T10:23:26.224Z,5.90
2018-08-14T10:25:54.252Z,5.85
2018-08-14T10:28:23.669Z,5.97
2018-08-14T10:30:52.005Z,6.12
2018-08-14T10:33:20.214Z,6.00
2018-08-14T10:35:48.268Z,5.60
2018-08-14T10:38:16.295Z,5.60
2018-08-14T10:40:44.393Z,6.62
2018-08-14T10:43:12.476Z,7.53
2018-08-14T10:45:40.535Z,6.90
2018-08-14T10:48:08.602Z,6.70
2018-08-14T10:50:36.734Z,7.50
2018-08-14T10:53:04.772Z,8.10
2018-08-14T10:55:32.815Z,8.78
2018-08-14T10:58:00.900Z,11.55
2018-08-14T11:00:29.987Z,12.20
2018-08-14T11:02:58.852Z,7.58
2018-08-14T11:05:26.899Z,5.93
2018-08-14T11:07:55.518Z,6.10
2018-08-14T11:10:28.323Z,6.40
2018-08-14T11:12:57.203Z,6.20
2018-08-14T11:15:25.693Z,6.60
2018-08-14T11:17:54.086Z,6.97
2018-08-14T11:20:23.644Z,6.60
2018-08-14T11:22:51.780Z,6.65
2018-08-14T11:25:19.911Z,6.72
2018-08-14T11:27:47.948Z,8.08
2018-08-14T11:30:22.678Z,7.80
2018-08-14T11:32:51.294Z,9.40
2018-08-14T11:35:20.133Z,10.88
2018-08-14T11:37:48.195Z,11.40
2018-08-14T11:40:16.245Z,10.80
2018-08-14T11:42:44.289Z,10.72
2018-08-14T11:45:14.907Z,9.73
2018-08-14T11:47:43.148Z,10.50
2018-08-14T11:50:11.183Z,10.30
2018-08-14T11:52:39.311Z,9.28
2018-08-14T11:55:07.709Z,9.40
2018-08-14T11:57:35.851Z,8.05
2018-08-14T12:00:05.259Z,7.93
2018-08-14T12:02:33.327Z,7.90
2018-08-14T12:05:01.400Z,7.80
2018-08-14T12:07:29.439Z,8.03
2018-08-14T12:09:57.494Z,6.83
2018-08-14T12:12:25.540Z,6.58
2018-08-14T12:14:53.565Z,5.97
2018-08-14T12:17:21.592Z,6.03
2018-08-14T12:19:49.696Z,5.70
2018-08-14T12:22:17.735Z,6.30
2018-08-14T12:24:45.768Z,6.73
2018-08-14T12:27:13.812Z,5.50
2018-08-14T12:29:41.908Z,4.97
2018-08-14T12:32:09.938Z,4.60
2018-08-14T12:34:37.968Z,4.47
2018-08-14T12:37:06.333Z,3.80
2018-08-14T12:39:34.363Z,4.00
2018-08-14T12:42:02.404Z,3.80
2018-08-14T12:44:30.456Z,3.90
2018-08-14T12:46:58.496Z,4.10
2018-08-14T12:49:26.571Z,3.50
2018-08-14T12:51:54.638Z,3.90
2018-08-14T12:54:22.692Z,3.95
2018-08-14T12:56:50.748Z,3.58
2018-08-14T12:59:18.792Z,4.10
2018-08-14T13:01:46.850Z,4.60
2018-08-14T13:04:14.855Z,4.20
2018-08-14T13:06:42.900Z,3.90
2018-08-14T13:09:11.783Z,3.22
2018-08-14T13:11:40.479Z,3.05
2018-08-14T13:14:08.828Z,2.90
2018-08-14T13:16:37.015Z,2.30
2018-08-14T13:19:05.075Z,2.20
2018-08-14T13:21:33.100Z,1.62
2018-08-14T13:24:01.140Z,1.85
2018-08-14T13:26:29.167Z,2.27
2018-08-14T13:28:57.199Z,1.80
2018-08-14T13:31:25.296Z,1.80
2018-08-14T13:33:53.308Z,1.80
2018-08-14T13:36:21.403Z,1.70
2018-08-14T13:38:49.423Z,2.60
2018-08-14T13:41:17.488Z,2.80
2018-08-14T13:43:45.524Z,3.70
2018-08-14T13:46:13.592Z,3.40
2018-08-14T13:48:41.912Z,3.40
2018-08-14T13:51:09.948Z,3.50
2018-08-14T13:53:38.102Z,3.22
2018-08-14T13:56:06.664Z,3.20
2018-08-14T13:58:34.715Z,3.00
2018-08-14T14:01:02.767Z,3.60
2018-08-14T14:03:30.829Z,3.30
2018-08-14T14:05:58.856Z,3.45
2018-08-14T14:08:26.871Z,4.37
2018-08-14T14:10:54.936Z,4.00
2018-08-14T14:13:23.000Z,4.30
2018-08-14T14:15:51.046Z,3.50
2018-08-14T14:18:19.087Z,3.30
2018-08-14T14:20:47.172Z,3.50
2018-08-14T14:23:15.718Z,3.30
2018-08-14T14:25:43.728Z,3.30
2018-08-14T14:28:11.755Z,3.35
2018-08-14T14:30:39.820Z,3.00
2018-08-14T14:33:07.857Z,3.27
2018-08-14T14:35:35.889Z,3.10
2018-08-14T14:38:03.935Z,3.10
2018-08-14T14:40:31.951Z,3.60
2018-08-14T14:43:01.273Z,3.20
2018-08-14T14:45:29.315Z,3.20
2018-08-14T14:47:57.379Z,2.90
2018-08-14T14:50:25.430Z,3.10
2018-08-14T14:52:53.485Z,3.00
2018-08-14T14:55:22.501Z,2.95
2018-08-14T14:57:50.916Z,2.50
2018-08-14T15:00:30.844Z,2.70
2018-08-14T15:02:58.966Z,2.70
2018-08-14T15:05:26.975Z,2.40
2018-08-14T15:07:55.024Z,2.33
2018-08-14T15:10:23.223Z,2.30
2018-08-14T15:12:51.244Z,2.22
2018-08-14T15:15:19.263Z,2.60
2018-08-14T15:17:47.829Z,2.60
2018-08-14T15:20:18.243Z,2.17
2018-08-14T15:22:47.220Z,2.65
2018-08-14T15:25:16.593Z,2.20
2018-08-14T15:29:03.804Z,1.90
2018-08-14T15:31:32.453Z,1.70
2018-08-14T15:34:00.925Z,1.70
2018-08-14T15:36:30.027Z,1.75
2018-08-14T15:38:59.227Z,1.80
2018-08-14T15:41:27.708Z,1.70
2018-08-14T15:43:55.910Z,1.90
2018-08-14T15:46:24.166Z,2.00
2018-08-14T15:48:52.473Z,1.75
2018-08-14T15:51:20.579Z,1.90
2018-08-14T15:53:49.601Z,1.80
2018-08-14T15:56:17.633Z,1.70
2018-08-14T15:58:45.929Z,1.70
2018-08-14T16:01:13.958Z,1.70
2018-08-14T16:03:41.983Z,1.80
2018-08-14T16:06:10.040Z,1.60
2018-08-14T16:08:38.099Z,2.00
2018-08-14T16:11:06.313Z,1.60
2018-08-14T16:13:34.377Z,2.00
2018-08-14T16:16:02.599Z,1.90
2018-08-14T16:18:30.715Z,2.00
2018-08-14T16:20:58.767Z,1.80
2018-08-14T16:23:26.825Z,2.00
2018-08-14T16:25:54.868Z,2.10
2018-08-14T16:28:22.896Z,1.80
2018-08-14T16:30:50.923Z,1.90
2018-08-14T16:33:18.967Z,2.05
2018-08-14T16:35:46.996Z,2.27
2018-08-14T16:38:15.048Z,2.10
2018-08-14T16:40:43.433Z,2.08
2018-08-14T16:43:11.439Z,1.72
2018-08-14T16:45:39.515Z,2.10
2018-08-14T16:48:07.788Z,2.00
2018-08-14T16:50:35.812Z,2.00
2018-08-14T16:53:03.849Z,1.90
2018-08-14T16:55:31.956Z,1.80
2018-08-14T16:57:59.979Z,1.80
2018-08-14T17:00:33.552Z,1.50
2018-08-14T17:03:02.036Z,1.67
2018-08-14T17:05:30.076Z,1.52
2018-08-14T17:07:58.173Z,1.60
2018-08-14T17:10:26.972Z,1.75
2018-08-14T17:12:55.971Z,1.90
2018-08-14T17:15:25.176Z,1.70
2018-08-14T17:17:53.274Z,1.80
2018-08-14T17:20:20.431Z,1.55
2018-08-14T17:22:48.481Z,1.70
2018-08-14T17:25:16.520Z,2.00
2018-08-14T17:27:47.585Z,1.90
2018-08-14T17:30:18.377Z,1.80
2018-08-14T17:32:46.818Z,2.10
2018-08-14T17:35:14.873Z,2.00
2018-08-14T17:37:43.030Z,1.98
2018-08-14T17:40:13.637Z,1.80
2018-08-14T17:42:41.941Z,2.00
2018-08-14T17:45:17.150Z,1.70
2018-08-14T17:47:45.200Z,2.00
2018-08-14T17:50:13.253Z,2.20
2018-08-14T17:52:41.335Z,1.95
2018-08-14T17:55:09.845Z,2.20
2018-08-14T17:57:38.264Z,2.00
2018-08-14T18:00:15.932Z,2.08
2018-08-14T18:02:44.068Z,2.20
2018-08-14T18:05:12.321Z,1.85
2018-08-14T18:07:41.080Z,1.65
2018-08-14T18:10:13.324Z,2.00
2018-08-14T18:12:41.348Z,2.00
2018-08-14T18:15:11.019Z,1.70
2018-08-14T18:17:39.135Z,1.70
2018-08-14T18:20:11.141Z,2.10
2018-08-14T18:22:39.300Z,1.90
2018-08-14T18:25:07.531Z,2.10
2018-08-14T18:27:35.659Z,2.02
2018-08-14T18:30:04.395Z,2.20
2018-08-14T18:32:32.455Z,1.50
2018-08-14T18:35:00.504Z,1.80
2018-08-14T18:37:28.566Z,1.92
2018-08-14T18:39:57.044Z,1.95
2018-08-14T18:42:25.116Z,2.20
2018-08-14T18:44:53.240Z,2.40
2018-08-14T18:47:21.342Z,2.30
2018-08-14T18:49:49.812Z,2.60
2018-08-14T18:52:17.900Z,2.55
2018-08-14T18:54:45.985Z,2.60
2018-08-14T18:57:14.046Z,2.90
2018-08-14T18:59:42.133Z,3.20
2018-08-14T19:02:10.179Z,3.20
2018-08-14T19:04:38.289Z,2.67
2018-08-14T19:07:06.411Z,2.47
2018-08-14T19:09:34.444Z,2.50
2018-08-14T19:12:02.567Z,3.20
2018-08-14T19:14:30.592Z,3.47
2018-08-14T19:16:58.683Z,2.85
2018-08-14T19:19:26.756Z,2.40
2018-08-14T19:21:55.126Z,2.77
2018-08-14T19:24:23.160Z,2.87
2018-08-14T19:26:51.284Z,2.60
2018-08-14T19:29:19.320Z,2.90
2018-08-14T19:31:47.608Z,2.60
2018-08-14T19:34:15.651Z,3.00
2018-08-14T19:36:43.780Z,3.10
2018-08-14T19:39:12.508Z,3.77
2018-08-14T19:41:42.001Z,3.40
2018-08-14T19:44:10.483Z,3.20
2018-08-14T19:46:38.569Z,3.00
2018-08-14T19:49:06.652Z,2.80
2018-08-14T19:51:34.705Z,3.47
2018-08-14T19:54:03.675Z,3.10
2018-08-14T19:56:31.777Z,2.90
2018-08-14T19:58:59.857Z,2.70
2018-08-14T20:01:28.328Z,2.93
2018-08-14T20:03:56.416Z,2.62
2018-08-14T20:06:24.473Z,2.60
2018-08-14T20:08:52.575Z,2.80
2018-08-14T20:11:20.672Z,3.00
2018-08-14T20:13:48.680Z,2.67
2018-08-14T20:16:16.744Z,3.08
2018-08-14T20:18:44.801Z,3.05
2018-08-14T20:21:12.839Z,2.62
2018-08-14T20:23:40.992Z,2.90
2018-08-14T20:26:08.988Z,2.70
2018-08-14T20:28:37.120Z,2.95
2018-08-14T20:31:05.188Z,2.80
2018-08-14T20:33:33.254Z,2.80
2018-08-14T20:36:01.301Z,2.83
2018-08-14T20:38:29.380Z,3.33
2018-08-14T20:40:57.385Z,2.80
2018-08-14T20:43:25.487Z,3.10
2018-08-14T20:45:53.528Z,2.70
2018-08-14T20:48:21.588Z,3.00
2018-08-14T20:50:49.637Z,3.08
2018-08-14T20:53:17.741Z,2.45
2018-08-14T20:55:45.776Z,3.80
2018-08-14T20:58:13.829Z,2.70
2018-08-14T21:00:42.239Z,2.70
2018-08-14T21:03:10.310Z,3.00
2018-08-14T21:05:38.391Z,3.05
2018-08-14T21:08:06.434Z,2.47
2018-08-14T21:10:35.292Z,2.80
2018-08-14T21:13:03.343Z,2.40
2018-08-14T21:15:36.833Z,2.70
2018-08-14T21:18:05.447Z,2.50
2018-08-14T21:20:33.519Z,2.60
2018-08-14T21:23:01.601Z,2.87
2018-08-14T21:25:29.643Z,2.60
2018-08-14T21:27:57.684Z,2.50
2018-08-14T21:30:25.727Z,3.00
2018-08-14T21:32:53.768Z,2.50
2018-08-14T21:35:21.808Z,2.70
2018-08-14T21:37:49.835Z,2.80
2018-08-14T21:40:18.895Z,2.70
2018-08-14T21:42:48.107Z,2.27
2018-08-14T21:45:17.388Z,2.20
2018-08-14T21:47:45.679Z,2.58
2018-08-14T21:50:13.743Z,2.40
2018-08-14T21:52:41.788Z,2.87
2018-08-14T21:55:11.013Z,2.70
2018-08-14T21:57:39.684Z,2.50
2018-08-14T22:00:23.586Z,2.50
2018-08-14T22:02:52.126Z,2.50
2018-08-14T22:05:20.157Z,2.90
2018-08-14T22:07:48.393Z,2.50
2018-08-14T22:10:18.592Z,2.40
2018-08-14T22:12:46.618Z,2.40
2018-08-14T22:15:14.758Z,2.57
2018-08-14T22:17:42.920Z,2.50
2018-08-14T22:20:12.833Z,2.35
2018-08-14T22:22:41.401Z,2.08
2018-08-14T22:25:09.436Z,2.50
2018-08-14T22:27:37.502Z,2.20
2018-08-14T22:30:08.488Z,2.00
2018-08-14T22:32:36.507Z,2.52
2018-08-14T22:35:05.032Z,2.30
2018-08-14T22:37:33.080Z,2.35
2018-08-14T22:40:01.108Z,1.98
2018-08-14T22:42:29.147Z,2.70
2018-08-14T22:44:57.176Z,2.60
2018-08-14T22:47:25.240Z,2.30
2018-08-14T22:49:53.287Z,2.65
2018-08-14T22:52:21.310Z,2.67
2018-08-14T22:54:49.346Z,2.70
2018-08-14T22:57:17.387Z,2.60
2018-08-14T22:59:45.444Z,2.40
2018-08-14T23:02:13.495Z,2.33
2018-08-14T23:04:41.528Z,2.20
2018-08-14T23:07:09.587Z,2.50
2018-08-14T23:09:37.628Z,2.10
2018-08-14T23:12:05.643Z,2.40
2018-08-14T23:14:33.744Z,2.22
2018-08-14T23:17:01.780Z,2.50
2018-08-14T23:19:30.072Z,2.45
2018-08-14T23:21:58.140Z,2.30
2018-08-14T23:24:26.178Z,2.30
2018-08-14T23:26:54.208Z,3.50
2018-08-14T23:29:22.219Z,2.20
2018-08-14T23:31:50.271Z,2.30
2018-08-14T23:34:18.303Z,2.40
2018-08-14T23:36:46.328Z,2.20
2018-08-14T23:39:14.397Z,2.42
2018-08-14T23:41:43.371Z,2.40
2018-08-14T23:44:11.403Z,2.20
2018-08-14T23:46:39.440Z,2.40
2018-08-14T23:49:07.458Z,2.35
2018-08-14T23:51:35.492Z,2.10
2018-08-14T23:54:03.561Z,2.47
2018-08-14T23:56:31.633Z,2.52
2018-08-14T23:58:59.691Z,2.30
